sensor_id;sensor_type;location;lat;lon;timestamp;P1;durP1;ratioP1;P2;durP2;ratioP2
966;SDS011;56108;48.730;9.304;2023-02-15T00:00:55;31.52;;;24.77;;
966;SDS011;56108;48.730;9.304;2023-02-15T00:03:12;32.78;;;25.17;;
966;SDS011;56108;48.730;9.304;2023-02-15T00:05:23;32.25;;;25.85;;
966;SDS011;56108;48.730;9.304;2023-02-15T00:07:31;34.33;;;27.20;;
966;SDS011;56108;48.730;9.304;2023-02-15T00:09:39;34.13;;;27.00;;
966;SDS011;56108;48.730;9.304;2023-02-15T00:11:47;34.83;;;24.70;;
966;SDS011;56108;48.730;9.304;2023-02-15T00:13:59;35.78;;;27.60;;
966;SDS011;56108;48.730;9.304;2023-02-15T00:16:08;39.17;;;27.98;;
966;SDS011;56108;48.730;9.304;2023-02-15T00:18:17;36.10;;;26.25;;
966;SDS011;56108;48.730;9.304;2023-02-15T00:20:24;37.65;;;27.90;;
966;SDS011;56108;48.730;9.304;2023-02-15T00:22:32;40.60;;;27.20;;
966;SDS011;56108;48.730;9.304;2023-02-15T00:24:40;35.38;;;26.83;;
966;SDS011;56108;48.730;9.304;2023-02-15T00:26:48;35.80;;;27.10;;
966;SDS011;56108;48.730;9.304;2023-02-15T00:28:59;33.60;;;25.33;;
966;SDS011;56108;48.730;9.304;2023-02-15T00:31:09;37.20;;;27.05;;
966;SDS011;56108;48.730;9.304;2023-02-15T00:33:18;36.85;;;26.45;;
966;SDS011;56108;48.730;9.304;2023-02-15T00:35:27;37.72;;;26.98;;
966;SDS011;56108;48.730;9.304;2023-02-15T00:37:34;36.75;;;25.60;;
966;SDS011;56108;48.730;9.304;2023-02-15T00:39:42;36.80;;;26.02;;
966;SDS011;56108;48.730;9.304;2023-02-15T00:41:50;36.78;;;26.20;;
966;SDS011;56108;48.730;9.304;2023-02-15T00:44:01;38.15;;;27.40;;
966;SDS011;56108;48.730;9.304;2023-02-15T00:46:09;36.28;;;27.75;;
966;SDS011;56108;48.730;9.304;2023-02-15T00:48:17;40.92;;;27.42;;
966;SDS011;56108;48.730;9.304;2023-02-15T00:50:26;41.20;;;27.80;;
966;SDS011;56108;48.730;9.304;2023-02-15T00:52:34;36.40;;;28.05;;
966;SDS011;56108;48.730;9.304;2023-02-15T00:54:42;43.03;;;29.38;;
966;SDS011;56108;48.730;9.304;2023-02-15T00:56:50;35.80;;;28.13;;
966;SDS011;56108;48.730;9.304;2023-02-15T00:59:01;37.75;;;27.90;;
966;SDS011;56108;48.730;9.304;2023-02-15T01:01:20;40.53;;;30.23;;
966;SDS011;56108;48.730;9.304;2023-02-15T01:03:28;35.80;;;26.17;;
966;SDS011;56108;48.730;9.304;2023-02-15T01:05:36;40.97;;;30.35;;
966;SDS011;56108;48.730;9.304;2023-02-15T01:07:44;37.33;;;27.90;;
966;SDS011;56108;48.730;9.304;2023-02-15T01:09:52;37.10;;;27.30;;
966;SDS011;56108;48.730;9.304;2023-02-15T01:12:00;40.70;;;28.75;;
966;SDS011;56108;48.730;9.304;2023-02-15T01:14:11;40.95;;;28.88;;
966;SDS011;56108;48.730;9.304;2023-02-15T01:16:19;37.13;;;29.30;;
966;SDS011;56108;48.730;9.304;2023-02-15T01:18:28;36.67;;;27.60;;
966;SDS011;56108;48.730;9.304;2023-02-15T01:20:38;35.53;;;29.70;;
966;SDS011;56108;48.730;9.304;2023-02-15T01:22:47;39.83;;;28.27;;
966;SDS011;56108;48.730;9.304;2023-02-15T01:24:55;42.17;;;29.15;;
966;SDS011;56108;48.730;9.304;2023-02-15T01:27:06;37.97;;;28.30;;
966;SDS011;56108;48.730;9.304;2023-02-15T01:29:16;44.85;;;28.27;;
966;SDS011;56108;48.730;9.304;2023-02-15T01:31:24;39.10;;;28.08;;
966;SDS011;56108;48.730;9.304;2023-02-15T01:33:33;37.00;;;28.42;;
966;SDS011;56108;48.730;9.304;2023-02-15T01:35:41;35.40;;;27.98;;
966;SDS011;56108;48.730;9.304;2023-02-15T01:37:50;38.30;;;27.95;;
966;SDS011;56108;48.730;9.304;2023-02-15T01:39:58;33.40;;;27.15;;
966;SDS011;56108;48.730;9.304;2023-02-15T01:42:11;38.95;;;27.55;;
966;SDS011;56108;48.730;9.304;2023-02-15T01:46:57;40.25;;;29.27;;
966;SDS011;56108;48.730;9.304;2023-02-15T01:49:08;43.05;;;29.85;;
966;SDS011;56108;48.730;9.304;2023-02-15T01:51:22;41.58;;;31.45;;
966;SDS011;56108;48.730;9.304;2023-02-15T01:53:35;43.33;;;29.70;;
966;SDS011;56108;48.730;9.304;2023-02-15T01:55:49;40.67;;;30.13;;
966;SDS011;56108;48.730;9.304;2023-02-15T01:58:01;38.92;;;28.58;;
966;SDS011;56108;48.730;9.304;2023-02-15T02:00:19;42.65;;;30.08;;
966;SDS011;56108;48.730;9.304;2023-02-15T02:02:27;41.42;;;31.80;;
966;SDS011;56108;48.730;9.304;2023-02-15T02:04:38;42.88;;;33.08;;
966;SDS011;56108;48.730;9.304;2023-02-15T02:06:49;49.72;;;32.97;;
966;SDS011;56108;48.730;9.304;2023-02-15T02:08:58;40.55;;;31.20;;
966;SDS011;56108;48.730;9.304;2023-02-15T02:11:09;43.28;;;30.45;;
966;SDS011;56108;48.730;9.304;2023-02-15T02:13:18;41.33;;;29.80;;
966;SDS011;56108;48.730;9.304;2023-02-15T02:15:31;44.50;;;30.50;;
966;SDS011;56108;48.730;9.304;2023-02-15T02:17:51;39.55;;;28.83;;
966;SDS011;56108;48.730;9.304;2023-02-15T02:20:15;44.30;;;30.75;;
966;SDS011;56108;48.730;9.304;2023-02-15T02:22:39;44.08;;;31.02;;
966;SDS011;56108;48.730;9.304;2023-02-15T02:25:12;45.97;;;31.15;;
966;SDS011;56108;48.730;9.304;2023-02-15T02:27:41;40.80;;;30.38;;
966;SDS011;56108;48.730;9.304;2023-02-15T02:33:01;42.50;;;31.48;;
966;SDS011;56108;48.730;9.304;2023-02-15T02:35:22;42.75;;;30.95;;
966;SDS011;56108;48.730;9.304;2023-02-15T02:37:37;38.97;;;29.25;;
966;SDS011;56108;48.730;9.304;2023-02-15T02:39:55;41.80;;;30.38;;
966;SDS011;56108;48.730;9.304;2023-02-15T02:42:14;42.20;;;30.80;;
966;SDS011;56108;48.730;9.304;2023-02-15T02:44:30;39.80;;;28.30;;
966;SDS011;56108;48.730;9.304;2023-02-15T02:46:49;43.90;;;31.60;;
966;SDS011;56108;48.730;9.304;2023-02-15T02:49:03;43.83;;;29.40;;
966;SDS011;56108;48.730;9.304;2023-02-15T02:51:11;45.55;;;32.22;;
966;SDS011;56108;48.730;9.304;2023-02-15T02:53:26;44.40;;;31.52;;
966;SDS011;56108;48.730;9.304;2023-02-15T02:55:38;48.30;;;32.20;;
966;SDS011;56108;48.730;9.304;2023-02-15T02:57:52;49.70;;;31.75;;
966;SDS011;56108;48.730;9.304;2023-02-15T03:00:03;40.85;;;31.17;;
966;SDS011;56108;48.730;9.304;2023-02-15T03:02:15;39.45;;;29.67;;
966;SDS011;56108;48.730;9.304;2023-02-15T03:04:30;41.83;;;31.40;;
966;SDS011;56108;48.730;9.304;2023-02-15T03:06:50;47.30;;;33.55;;
966;SDS011;56108;48.730;9.304;2023-02-15T03:09:06;45.20;;;31.45;;
966;SDS011;56108;48.730;9.304;2023-02-15T03:11:26;47.90;;;32.15;;
966;SDS011;56108;48.730;9.304;2023-02-15T03:13:35;44.53;;;31.17;;
966;SDS011;56108;48.730;9.304;2023-02-15T03:15:44;45.38;;;31.35;;
966;SDS011;56108;48.730;9.304;2023-02-15T03:18:07;43.97;;;31.83;;
966;SDS011;56108;48.730;9.304;2023-02-15T03:20:18;44.15;;;29.67;;
966;SDS011;56108;48.730;9.304;2023-02-15T03:22:31;41.20;;;29.85;;
966;SDS011;56108;48.730;9.304;2023-02-15T03:24:47;45.55;;;31.23;;
966;SDS011;56108;48.730;9.304;2023-02-15T03:27:01;39.58;;;28.73;;
966;SDS011;56108;48.730;9.304;2023-02-15T03:29:11;45.30;;;31.52;;
966;SDS011;56108;48.730;9.304;2023-02-15T03:31:20;40.85;;;30.50;;
966;SDS011;56108;48.730;9.304;2023-02-15T03:33:33;43.53;;;29.23;;
966;SDS011;56108;48.730;9.304;2023-02-15T03:35:49;46.58;;;30.35;;
966;SDS011;56108;48.730;9.304;2023-02-15T03:38:03;41.10;;;30.27;;
966;SDS011;56108;48.730;9.304;2023-02-15T03:40:16;43.45;;;29.83;;
966;SDS011;56108;48.730;9.304;2023-02-15T03:42:41;46.38;;;32.30;;
966;SDS011;56108;48.730;9.304;2023-02-15T03:44:51;41.65;;;29.60;;
966;SDS011;56108;48.730;9.304;2023-02-15T03:47:06;42.53;;;30.52;;
966;SDS011;56108;48.730;9.304;2023-02-15T03:49:21;43.53;;;29.90;;
966;SDS011;56108;48.730;9.304;2023-02-15T03:51:35;45.65;;;29.70;;
966;SDS011;56108;48.730;9.304;2023-02-15T03:53:43;40.83;;;29.45;;
966;SDS011;56108;48.730;9.304;2023-02-15T03:55:54;46.25;;;35.22;;
966;SDS011;56108;48.730;9.304;2023-02-15T03:58:03;41.95;;;30.40;;
966;SDS011;56108;48.730;9.304;2023-02-15T04:00:24;41.10;;;29.58;;
966;SDS011;56108;48.730;9.304;2023-02-15T04:02:48;41.50;;;29.05;;
966;SDS011;56108;48.730;9.304;2023-02-15T04:05:05;38.78;;;27.25;;
966;SDS011;56108;48.730;9.304;2023-02-15T04:07:16;40.42;;;27.27;;
966;SDS011;56108;48.730;9.304;2023-02-15T04:09:26;44.75;;;28.85;;
966;SDS011;56108;48.730;9.304;2023-02-15T04:11:47;40.30;;;29.05;;
966;SDS011;56108;48.730;9.304;2023-02-15T04:13:54;35.22;;;25.20;;
966;SDS011;56108;48.730;9.304;2023-02-15T04:16:23;39.42;;;27.40;;
966;SDS011;56108;48.730;9.304;2023-02-15T04:18:29;41.22;;;27.85;;
966;SDS011;56108;48.730;9.304;2023-02-15T04:20:49;39.20;;;28.90;;
966;SDS011;56108;48.730;9.304;2023-02-15T04:23:12;38.70;;;27.38;;
966;SDS011;56108;48.730;9.304;2023-02-15T04:25:32;39.35;;;29.35;;
966;SDS011;56108;48.730;9.304;2023-02-15T04:27:41;38.15;;;27.42;;
966;SDS011;56108;48.730;9.304;2023-02-15T04:29:51;35.42;;;28.13;;
966;SDS011;56108;48.730;9.304;2023-02-15T04:32:00;39.97;;;27.60;;
966;SDS011;56108;48.730;9.304;2023-02-15T04:34:09;39.38;;;29.25;;
966;SDS011;56108;48.730;9.304;2023-02-15T04:36:17;39.92;;;28.35;;
966;SDS011;56108;48.730;9.304;2023-02-15T04:38:28;34.92;;;27.40;;
966;SDS011;56108;48.730;9.304;2023-02-15T04:40:38;40.42;;;27.33;;
966;SDS011;56108;48.730;9.304;2023-02-15T04:42:47;36.53;;;27.20;;
966;SDS011;56108;48.730;9.304;2023-02-15T04:44:55;34.42;;;25.20;;
966;SDS011;56108;48.730;9.304;2023-02-15T04:47:03;39.05;;;29.75;;
966;SDS011;56108;48.730;9.304;2023-02-15T04:49:11;40.20;;;30.42;;
966;SDS011;56108;48.730;9.304;2023-02-15T04:51:20;41.15;;;29.77;;
966;SDS011;56108;48.730;9.304;2023-02-15T04:53:30;40.58;;;28.45;;
966;SDS011;56108;48.730;9.304;2023-02-15T04:55:38;36.17;;;27.67;;
966;SDS011;56108;48.730;9.304;2023-02-15T04:57:46;41.33;;;29.02;;
966;SDS011;56108;48.730;9.304;2023-02-15T04:59:54;41.80;;;33.00;;
966;SDS011;56108;48.730;9.304;2023-02-15T05:02:03;37.10;;;30.17;;
966;SDS011;56108;48.730;9.304;2023-02-15T05:04:11;41.33;;;32.22;;
966;SDS011;56108;48.730;9.304;2023-02-15T05:06:19;41.85;;;31.23;;
966;SDS011;56108;48.730;9.304;2023-02-15T05:08:27;37.13;;;29.10;;
966;SDS011;56108;48.730;9.304;2023-02-15T05:10:37;35.10;;;25.65;;
966;SDS011;56108;48.730;9.304;2023-02-15T05:12:45;36.35;;;27.20;;
966;SDS011;56108;48.730;9.304;2023-02-15T05:14:53;36.85;;;27.45;;
966;SDS011;56108;48.730;9.304;2023-02-15T05:17:01;36.22;;;25.77;;
966;SDS011;56108;48.730;9.304;2023-02-15T05:19:09;40.45;;;28.15;;
966;SDS011;56108;48.730;9.304;2023-02-15T05:21:17;35.80;;;27.17;;
966;SDS011;56108;48.730;9.304;2023-02-15T05:23:25;41.00;;;29.33;;
966;SDS011;56108;48.730;9.304;2023-02-15T05:25:33;39.25;;;28.90;;
966;SDS011;56108;48.730;9.304;2023-02-15T05:27:56;43.33;;;30.05;;
966;SDS011;56108;48.730;9.304;2023-02-15T05:30:16;35.83;;;28.67;;
966;SDS011;56108;48.730;9.304;2023-02-15T05:32:24;41.92;;;29.20;;
966;SDS011;56108;48.730;9.304;2023-02-15T05:34:32;37.08;;;26.88;;
966;SDS011;56108;48.730;9.304;2023-02-15T05:36:40;42.45;;;28.40;;
966;SDS011;56108;48.730;9.304;2023-02-15T05:38:48;45.00;;;29.05;;
966;SDS011;56108;48.730;9.304;2023-02-15T05:40:56;41.70;;;30.15;;
966;SDS011;56108;48.730;9.304;2023-02-15T05:43:07;41.65;;;29.75;;
966;SDS011;56108;48.730;9.304;2023-02-15T05:45:16;39.58;;;28.25;;
966;SDS011;56108;48.730;9.304;2023-02-15T05:47:24;38.72;;;28.40;;
966;SDS011;56108;48.730;9.304;2023-02-15T05:49:32;36.55;;;27.10;;
966;SDS011;56108;48.730;9.304;2023-02-15T05:51:40;38.22;;;27.88;;
966;SDS011;56108;48.730;9.304;2023-02-15T05:53:48;36.92;;;26.90;;
966;SDS011;56108;48.730;9.304;2023-02-15T05:55:56;42.70;;;28.80;;
966;SDS011;56108;48.730;9.304;2023-02-15T05:58:10;38.85;;;29.73;;
966;SDS011;56108;48.730;9.304;2023-02-15T06:00:17;39.47;;;29.95;;
966;SDS011;56108;48.730;9.304;2023-02-15T06:02:28;42.10;;;31.00;;
966;SDS011;56108;48.730;9.304;2023-02-15T06:04:36;42.78;;;30.00;;
966;SDS011;56108;48.730;9.304;2023-02-15T06:06:44;41.80;;;31.00;;
966;SDS011;56108;48.730;9.304;2023-02-15T06:08:52;36.13;;;28.17;;
966;SDS011;56108;48.730;9.304;2023-02-15T06:11:00;35.65;;;26.95;;
966;SDS011;56108;48.730;9.304;2023-02-15T06:13:11;40.95;;;28.13;;
966;SDS011;56108;48.730;9.304;2023-02-15T06:15:19;35.45;;;27.60;;
966;SDS011;56108;48.730;9.304;2023-02-15T06:17:27;36.25;;;25.60;;
966;SDS011;56108;48.730;9.304;2023-02-15T06:19:35;38.28;;;28.65;;
966;SDS011;56108;48.730;9.304;2023-02-15T06:21:43;38.15;;;28.00;;
966;SDS011;56108;48.730;9.304;2023-02-15T06:23:52;36.28;;;26.77;;
966;SDS011;56108;48.730;9.304;2023-02-15T06:26:00;36.33;;;27.23;;
966;SDS011;56108;48.730;9.304;2023-02-15T06:28:11;41.40;;;29.30;;
966;SDS011;56108;48.730;9.304;2023-02-15T06:30:19;44.47;;;32.95;;
966;SDS011;56108;48.730;9.304;2023-02-15T06:32:27;41.13;;;33.50;;
966;SDS011;56108;48.730;9.304;2023-02-15T06:34:35;42.30;;;34.80;;
966;SDS011;56108;48.730;9.304;2023-02-15T06:36:44;36.70;;;28.67;;
966;SDS011;56108;48.730;9.304;2023-02-15T06:38:52;37.45;;;28.17;;
966;SDS011;56108;48.730;9.304;2023-02-15T06:41:00;40.28;;;28.95;;
966;SDS011;56108;48.730;9.304;2023-02-15T06:43:10;37.40;;;28.80;;
966;SDS011;56108;48.730;9.304;2023-02-15T06:45:18;38.58;;;30.38;;
966;SDS011;56108;48.730;9.304;2023-02-15T06:47:26;40.15;;;31.10;;
966;SDS011;56108;48.730;9.304;2023-02-15T06:49:34;43.92;;;31.80;;
966;SDS011;56108;48.730;9.304;2023-02-15T06:51:44;40.20;;;32.25;;
966;SDS011;56108;48.730;9.304;2023-02-15T06:53:52;38.67;;;31.35;;
966;SDS011;56108;48.730;9.304;2023-02-15T06:56:00;43.00;;;35.03;;
966;SDS011;56108;48.730;9.304;2023-02-15T06:58:14;45.65;;;35.47;;
966;SDS011;56108;48.730;9.304;2023-02-15T07:00:22;43.05;;;36.60;;
966;SDS011;56108;48.730;9.304;2023-02-15T07:02:30;44.35;;;35.58;;
966;SDS011;56108;48.730;9.304;2023-02-15T07:04:38;43.70;;;32.83;;
966;SDS011;56108;48.730;9.304;2023-02-15T07:06:46;40.80;;;32.50;;
966;SDS011;56108;48.730;9.304;2023-02-15T07:08:57;39.88;;;29.08;;
966;SDS011;56108;48.730;9.304;2023-02-15T07:11:05;39.08;;;28.42;;
966;SDS011;56108;48.730;9.304;2023-02-15T07:13:29;36.33;;;29.25;;
966;SDS011;56108;48.730;9.304;2023-02-15T07:15:37;37.03;;;28.80;;
966;SDS011;56108;48.730;9.304;2023-02-15T07:17:45;40.33;;;29.95;;
966;SDS011;56108;48.730;9.304;2023-02-15T07:19:53;41.92;;;28.48;;
966;SDS011;56108;48.730;9.304;2023-02-15T07:22:01;41.60;;;29.38;;
966;SDS011;56108;48.730;9.304;2023-02-15T07:24:09;48.25;;;29.35;;
966;SDS011;56108;48.730;9.304;2023-02-15T07:26:17;36.17;;;29.00;;
966;SDS011;56108;48.730;9.304;2023-02-15T07:28:25;41.17;;;31.90;;
966;SDS011;56108;48.730;9.304;2023-02-15T07:30:37;43.13;;;31.40;;
966;SDS011;56108;48.730;9.304;2023-02-15T07:32:45;39.58;;;29.85;;
966;SDS011;56108;48.730;9.304;2023-02-15T07:35:09;39.63;;;30.20;;
966;SDS011;56108;48.730;9.304;2023-02-15T07:37:17;37.88;;;29.75;;
966;SDS011;56108;48.730;9.304;2023-02-15T07:39:25;46.22;;;29.60;;
966;SDS011;56108;48.730;9.304;2023-02-15T07:41:32;39.88;;;28.77;;
966;SDS011;56108;48.730;9.304;2023-02-15T07:43:47;34.72;;;28.85;;
966;SDS011;56108;48.730;9.304;2023-02-15T07:46:01;42.42;;;31.05;;
966;SDS011;56108;48.730;9.304;2023-02-15T07:48:09;41.78;;;29.75;;
966;SDS011;56108;48.730;9.304;2023-02-15T07:50:17;38.05;;;27.83;;
966;SDS011;56108;48.730;9.304;2023-02-15T07:52:25;39.00;;;27.88;;
966;SDS011;56108;48.730;9.304;2023-02-15T07:54:33;37.97;;;28.70;;
966;SDS011;56108;48.730;9.304;2023-02-15T07:56:41;40.83;;;27.70;;
966;SDS011;56108;48.730;9.304;2023-02-15T07:58:49;34.55;;;27.17;;
966;SDS011;56108;48.730;9.304;2023-02-15T08:01:05;39.05;;;27.23;;
966;SDS011;56108;48.730;9.304;2023-02-15T08:03:12;36.03;;;25.75;;
966;SDS011;56108;48.730;9.304;2023-02-15T08:05:22;33.92;;;25.77;;
966;SDS011;56108;48.730;9.304;2023-02-15T08:07:30;32.75;;;24.80;;
966;SDS011;56108;48.730;9.304;2023-02-15T08:09:38;34.22;;;25.70;;
966;SDS011;56108;48.730;9.304;2023-02-15T08:11:46;33.17;;;27.98;;
966;SDS011;56108;48.730;9.304;2023-02-15T08:13:55;32.22;;;26.02;;
966;SDS011;56108;48.730;9.304;2023-02-15T08:16:17;36.15;;;26.70;;
966;SDS011;56108;48.730;9.304;2023-02-15T08:18:25;32.90;;;25.92;;
966;SDS011;56108;48.730;9.304;2023-02-15T08:20:33;33.95;;;26.70;;
966;SDS011;56108;48.730;9.304;2023-02-15T08:22:45;36.78;;;26.30;;
966;SDS011;56108;48.730;9.304;2023-02-15T08:24:53;30.23;;;24.75;;
966;SDS011;56108;48.730;9.304;2023-02-15T08:27:01;34.03;;;26.00;;
966;SDS011;56108;48.730;9.304;2023-02-15T08:29:10;34.90;;;26.30;;
966;SDS011;56108;48.730;9.304;2023-02-15T08:31:20;32.70;;;24.88;;
966;SDS011;56108;48.730;9.304;2023-02-15T08:33:28;33.85;;;24.75;;
966;SDS011;56108;48.730;9.304;2023-02-15T08:35:37;32.15;;;25.00;;
966;SDS011;56108;48.730;9.304;2023-02-15T08:37:45;30.60;;;25.48;;
966;SDS011;56108;48.730;9.304;2023-02-15T08:39:53;34.08;;;26.48;;
966;SDS011;56108;48.730;9.304;2023-02-15T08:42:02;28.23;;;23.13;;
966;SDS011;56108;48.730;9.304;2023-02-15T08:44:10;25.60;;;22.90;;
966;SDS011;56108;48.730;9.304;2023-02-15T08:46:22;32.10;;;25.08;;
966;SDS011;56108;48.730;9.304;2023-02-15T08:48:31;28.67;;;23.92;;
966;SDS011;56108;48.730;9.304;2023-02-15T08:50:39;31.08;;;26.95;;
966;SDS011;56108;48.730;9.304;2023-02-15T08:52:47;32.92;;;26.40;;
966;SDS011;56108;48.730;9.304;2023-02-15T08:54:55;30.77;;;24.67;;
966;SDS011;56108;48.730;9.304;2023-02-15T08:57:03;32.72;;;26.67;;
966;SDS011;56108;48.730;9.304;2023-02-15T08:59:12;31.15;;;25.08;;
966;SDS011;56108;48.730;9.304;2023-02-15T09:01:26;33.03;;;26.00;;
966;SDS011;56108;48.730;9.304;2023-02-15T09:03:34;30.75;;;24.90;;
966;SDS011;56108;48.730;9.304;2023-02-15T09:05:45;36.60;;;25.65;;
966;SDS011;56108;48.730;9.304;2023-02-15T09:07:53;33.38;;;23.85;;
966;SDS011;56108;48.730;9.304;2023-02-15T09:10:01;33.95;;;26.80;;
966;SDS011;56108;48.730;9.304;2023-02-15T09:12:09;32.83;;;26.42;;
966;SDS011;56108;48.730;9.304;2023-02-15T09:14:18;33.28;;;25.77;;
966;SDS011;56108;48.730;9.304;2023-02-15T09:16:32;32.28;;;26.02;;
966;SDS011;56108;48.730;9.304;2023-02-15T09:18:41;33.58;;;26.38;;
966;SDS011;56108;48.730;9.304;2023-02-15T09:20:49;33.05;;;26.38;;
966;SDS011;56108;48.730;9.304;2023-02-15T09:22:58;34.25;;;26.40;;
966;SDS011;56108;48.730;9.304;2023-02-15T09:25:06;39.65;;;31.83;;
966;SDS011;56108;48.730;9.304;2023-02-15T09:27:17;34.10;;;29.00;;
966;SDS011;56108;48.730;9.304;2023-02-15T09:29:25;30.25;;;26.92;;
966;SDS011;56108;48.730;9.304;2023-02-15T09:31:37;34.25;;;25.55;;
966;SDS011;56108;48.730;9.304;2023-02-15T09:33:49;30.95;;;25.85;;
966;SDS011;56108;48.730;9.304;2023-02-15T09:35:59;30.38;;;24.00;;
966;SDS011;56108;48.730;9.304;2023-02-15T09:38:07;30.42;;;23.30;;
966;SDS011;56108;48.730;9.304;2023-02-15T09:40:16;26.38;;;23.38;;
966;SDS011;56108;48.730;9.304;2023-02-15T09:42:33;28.55;;;23.10;;
966;SDS011;56108;48.730;9.304;2023-02-15T09:45:04;24.98;;;21.13;;
966;SDS011;56108;48.730;9.304;2023-02-15T09:47:34;24.73;;;21.27;;
966;SDS011;56108;48.730;9.304;2023-02-15T09:49:55;24.30;;;21.70;;
966;SDS011;56108;48.730;9.304;2023-02-15T09:52:15;23.75;;;21.23;;
966;SDS011;56108;48.730;9.304;2023-02-15T09:54:38;24.35;;;21.73;;
966;SDS011;56108;48.730;9.304;2023-02-15T09:56:58;24.30;;;22.00;;
966;SDS011;56108;48.730;9.304;2023-02-15T09:59:15;23.98;;;21.58;;
966;SDS011;56108;48.730;9.304;2023-02-15T10:01:32;23.30;;;21.20;;
966;SDS011;56108;48.730;9.304;2023-02-15T10:03:58;24.00;;;21.67;;
966;SDS011;56108;48.730;9.304;2023-02-15T10:06:31;23.55;;;21.05;;
966;SDS011;56108;48.730;9.304;2023-02-15T10:08:50;24.00;;;21.60;;
966;SDS011;56108;48.730;9.304;2023-02-15T10:11:14;23.00;;;20.90;;
966;SDS011;56108;48.730;9.304;2023-02-15T10:13:41;24.50;;;22.20;;
966;SDS011;56108;48.730;9.304;2023-02-15T10:15:59;23.83;;;21.48;;
966;SDS011;56108;48.730;9.304;2023-02-15T10:18:22;26.58;;;24.08;;
966;SDS011;56108;48.730;9.304;2023-02-15T10:20:46;24.85;;;22.55;;
966;SDS011;56108;48.730;9.304;2023-02-15T10:23:10;25.17;;;22.73;;
966;SDS011;56108;48.730;9.304;2023-02-15T10:25:33;23.25;;;20.80;;
966;SDS011;56108;48.730;9.304;2023-02-15T10:27:51;23.75;;;21.55;;
966;SDS011;56108;48.730;9.304;2023-02-15T10:30:03;25.33;;;22.83;;
966;SDS011;56108;48.730;9.304;2023-02-15T10:32:19;24.95;;;22.55;;
966;SDS011;56108;48.730;9.304;2023-02-15T10:34:31;24.40;;;21.98;;
966;SDS011;56108;48.730;9.304;2023-02-15T10:37:02;22.20;;;20.00;;
966;SDS011;56108;48.730;9.304;2023-02-15T10:39:20;24.25;;;21.95;;
966;SDS011;56108;48.730;9.304;2023-02-15T10:41:37;24.40;;;22.00;;
966;SDS011;56108;48.730;9.304;2023-02-15T10:43:56;24.08;;;21.88;;
966;SDS011;56108;48.730;9.304;2023-02-15T10:46:16;24.55;;;22.05;;
966;SDS011;56108;48.730;9.304;2023-02-15T10:48:39;24.92;;;22.38;;
966;SDS011;56108;48.730;9.304;2023-02-15T10:51:07;26.40;;;23.77;;
966;SDS011;56108;48.730;9.304;2023-02-15T10:56:01;24.75;;;22.38;;
966;SDS011;56108;48.730;9.304;2023-02-15T10:58:19;25.48;;;23.13;;
966;SDS011;56108;48.730;9.304;2023-02-15T11:00:39;25.83;;;23.23;;
966;SDS011;56108;48.730;9.304;2023-02-15T11:03:00;26.58;;;23.67;;
966;SDS011;56108;48.730;9.304;2023-02-15T11:05:31;27.15;;;24.45;;
966;SDS011;56108;48.730;9.304;2023-02-15T11:07:48;23.92;;;21.33;;
966;SDS011;56108;48.730;9.304;2023-02-15T11:10:05;24.52;;;22.02;;
966;SDS011;56108;48.730;9.304;2023-02-15T11:12:22;24.60;;;22.17;;
966;SDS011;56108;48.730;9.304;2023-02-15T11:14:34;26.17;;;23.52;;
966;SDS011;56108;48.730;9.304;2023-02-15T11:16:49;26.40;;;22.88;;
966;SDS011;56108;48.730;9.304;2023-02-15T11:19:01;26.98;;;24.08;;
966;SDS011;56108;48.730;9.304;2023-02-15T11:21:17;25.25;;;22.73;;
966;SDS011;56108;48.730;9.304;2023-02-15T11:23:28;24.50;;;21.58;;
966;SDS011;56108;48.730;9.304;2023-02-15T11:25:42;24.80;;;21.55;;
966;SDS011;56108;48.730;9.304;2023-02-15T11:27:53;25.83;;;22.33;;
966;SDS011;56108;48.730;9.304;2023-02-15T11:30:04;25.63;;;21.88;;
966;SDS011;56108;48.730;9.304;2023-02-15T11:32:18;29.15;;;22.33;;
966;SDS011;56108;48.730;9.304;2023-02-15T11:34:29;24.70;;;21.77;;
966;SDS011;56108;48.730;9.304;2023-02-15T11:36:41;24.00;;;21.40;;
966;SDS011;56108;48.730;9.304;2023-02-15T11:38:52;25.63;;;23.02;;
966;SDS011;56108;48.730;9.304;2023-02-15T11:41:12;27.48;;;24.13;;
966;SDS011;56108;48.730;9.304;2023-02-15T11:43:29;27.95;;;25.05;;
966;SDS011;56108;48.730;9.304;2023-02-15T11:45:43;26.98;;;24.17;;
966;SDS011;56108;48.730;9.304;2023-02-15T11:47:56;25.80;;;21.55;;
966;SDS011;56108;48.730;9.304;2023-02-15T11:50:10;24.10;;;21.48;;
966;SDS011;56108;48.730;9.304;2023-02-15T11:52:21;25.25;;;22.08;;
966;SDS011;56108;48.730;9.304;2023-02-15T11:54:30;24.40;;;21.85;;
966;SDS011;56108;48.730;9.304;2023-02-15T11:56:43;24.27;;;20.40;;
966;SDS011;56108;48.730;9.304;2023-02-15T11:58:52;26.02;;;22.88;;
966;SDS011;56108;48.730;9.304;2023-02-15T12:01:08;23.08;;;20.52;;
966;SDS011;56108;48.730;9.304;2023-02-15T12:03:21;25.58;;;21.98;;
966;SDS011;56108;48.730;9.304;2023-02-15T12:05:35;25.23;;;21.38;;
966;SDS011;56108;48.730;9.304;2023-02-15T12:07:48;25.73;;;22.52;;
966;SDS011;56108;48.730;9.304;2023-02-15T12:10:02;24.05;;;21.65;;
966;SDS011;56108;48.730;9.304;2023-02-15T12:12:22;31.52;;;28.23;;
966;SDS011;56108;48.730;9.304;2023-02-15T12:14:34;33.88;;;27.40;;
966;SDS011;56108;48.730;9.304;2023-02-15T12:16:54;31.63;;;26.35;;
966;SDS011;56108;48.730;9.304;2023-02-15T12:19:04;36.45;;;28.48;;
966;SDS011;56108;48.730;9.304;2023-02-15T12:21:13;39.05;;;28.75;;
966;SDS011;56108;48.730;9.304;2023-02-15T12:23:23;34.72;;;29.05;;
966;SDS011;56108;48.730;9.304;2023-02-15T12:25:35;38.08;;;28.48;;
966;SDS011;56108;48.730;9.304;2023-02-15T12:27:49;37.80;;;28.85;;
966;SDS011;56108;48.730;9.304;2023-02-15T12:29:58;37.45;;;27.85;;
966;SDS011;56108;48.730;9.304;2023-02-15T12:32:10;30.65;;;27.35;;
966;SDS011;56108;48.730;9.304;2023-02-15T12:34:25;30.75;;;27.08;;
966;SDS011;56108;48.730;9.304;2023-02-15T12:36:40;31.85;;;25.60;;
966;SDS011;56108;48.730;9.304;2023-02-15T12:39:05;31.17;;;27.85;;
966;SDS011;56108;48.730;9.304;2023-02-15T12:41:25;32.40;;;27.80;;
966;SDS011;56108;48.730;9.304;2023-02-15T12:43:37;30.85;;;26.75;;
966;SDS011;56108;48.730;9.304;2023-02-15T12:45:45;31.10;;;27.45;;
966;SDS011;56108;48.730;9.304;2023-02-15T12:48:07;32.45;;;26.45;;
966;SDS011;56108;48.730;9.304;2023-02-15T12:50:21;31.25;;;26.83;;
966;SDS011;56108;48.730;9.304;2023-02-15T12:52:39;31.05;;;26.30;;
966;SDS011;56108;48.730;9.304;2023-02-15T12:54:47;35.72;;;28.65;;
966;SDS011;56108;48.730;9.304;2023-02-15T12:56:55;45.05;;;28.02;;
966;SDS011;56108;48.730;9.304;2023-02-15T12:59:12;31.27;;;25.15;;
966;SDS011;56108;48.730;9.304;2023-02-15T13:01:26;30.02;;;25.48;;
966;SDS011;56108;48.730;9.304;2023-02-15T13:03:51;31.42;;;27.48;;
966;SDS011;56108;48.730;9.304;2023-02-15T13:06:04;32.35;;;25.90;;
966;SDS011;56108;48.730;9.304;2023-02-15T13:08:14;33.42;;;27.42;;
966;SDS011;56108;48.730;9.304;2023-02-15T13:10:25;32.42;;;27.25;;
966;SDS011;56108;48.730;9.304;2023-02-15T13:12:36;37.65;;;27.52;;
966;SDS011;56108;48.730;9.304;2023-02-15T13:14:47;35.75;;;27.92;;
966;SDS011;56108;48.730;9.304;2023-02-15T13:17:00;37.25;;;29.05;;
966;SDS011;56108;48.730;9.304;2023-02-15T13:19:12;33.58;;;27.13;;
966;SDS011;56108;48.730;9.304;2023-02-15T13:21:25;30.20;;;26.90;;
966;SDS011;56108;48.730;9.304;2023-02-15T13:23:39;35.03;;;26.90;;
966;SDS011;56108;48.730;9.304;2023-02-15T13:25:49;30.33;;;26.45;;